Sunday, April 22, 2018, 5:55 PM EDT
Back to Local

KORH, Worcester Regional Airport

Location: Worcester, MA, United States Lat: 42.267
Local Time: 5:55 PM EDT (21:55 GMT) Lon: -71.867
Time Zone: US/Eastern Elev: 1010 ft

Show me the last for .
Show Coded

Time T Td Feel RH Dir Speed Gust Alt SLP Vis Weather Sky Remarks
2018-04-22 16:54 57 14 - 18 340° 10 - 30.29 30.31 10 CLR None
2018-04-22 15:54 58 15 - 18 330° 14 24 30.29 30.31 10 CLR None
2018-04-22 14:54 58 17 - 19 330° 8 - 30.30 30.31 10 CLR None
2018-04-22 13:54 56 18 - 22 310° 9 - 30.31 30.33 10 CLR 6-hr Min Temp (2pm): 43.0°F
6-hr Max Temp (2pm): 55.9°F
2018-04-22 12:54 54 18 - 23 Variable 6 20 30.33 30.34 10 CLR None
2018-04-22 11:54 52 15 - 22 330° 9 - 30.34 30.35 10 CLR None
2018-04-22 10:54 50 17 44 26 280° 13 20 30.34 30.36 10 CLR None
2018-04-22 09:54 48 17 41 28 290° 12 20 30.35 30.37 10 CLR None
2018-04-22 08:54 46 18 41 32 300° 12 - 30.35 30.37 10 CLR None
2018-04-22 07:54 43 18 37 36 310° 10 - 30.34 30.36 10 CLR 6-hr Min Temp (8am): 35.1°F
6-hr Max Temp (8am): 43.0°F
2018-04-22 06:54 39 18 32 42 300° 10 - 30.33 30.35 10 CLR None
2018-04-22 05:54 35 17 27 47 290° 10 - 30.32 30.34 10 CLR None
2018-04-22 04:54 36 16 30 43 280° 8 - 30.31 30.33 10 CLR None
2018-04-22 03:54 36 17 30 45 280° 8 - 30.32 30.34 10 CLR None
2018-04-22 02:54 36 18 30 47 290° 7 - 30.31 30.33 10 CLR None
2018-04-22 01:54 37 17 32 43 290° 6 - 30.31 30.34 10 CLR 6-hr Min Temp (2am): 37.0°F
6-hr Max Temp (2am): 50.0°F
2018-04-22 00:54 43 16 39 33 330° 7 - 30.31 30.32 10 CLR 24-hr Min Temp (1am): 30.9°F
24-hr Max Temp (1am): 55.0°F
2018-04-21 23:54 45 16 41 30 340° 8 - 30.30 30.32 10 CLR None
2018-04-21 22:54 46 15 42 28 330° 7 - 30.29 30.30 10 CLR None
2018-04-21 21:54 47 15 42 27 320° 10 - 30.27 30.29 10 CLR None
2018-04-21 20:54 49 15 45 25 320° 9 - 30.26 30.28 10 CLR None
2018-04-21 19:54 51 14 - 22 320° 8 - 30.23 30.25 10 CLR 6-hr Min Temp (8pm): 50.0°F
6-hr Max Temp (8pm): 55.0°F
2018-04-21 18:54 53 18 - 24 290° 10 - 30.20 30.22 10 CLR None

Support USWX by starting your Amazon purchase here.